createdAt,value
2022-07-29T00:00:13.620Z,16.15
2022-07-29T00:01:19.317Z,16.17
2022-07-29T00:02:16.295Z,16.14
2022-07-29T00:03:16.250Z,16.15
2022-07-29T00:04:17.805Z,16.14
2022-07-29T00:05:17.959Z,16.14
2022-07-29T00:06:18.846Z,16.11
2022-07-29T00:07:19.731Z,16.12
2022-07-29T00:08:20.601Z,16.11
2022-07-29T00:09:21.483Z,16.11
2022-07-29T00:10:22.357Z,16.11
2022-07-29T00:11:23.262Z,16.11
2022-07-29T00:12:26.052Z,16.11
2022-07-29T00:13:32.214Z,16.11
2022-07-29T00:14:26.437Z,16.11
2022-07-29T00:15:26.319Z,16.12
2022-07-29T00:16:27.249Z,16.12
2022-07-29T00:17:28.119Z,16.14
2022-07-29T00:18:28.992Z,16.14
2022-07-29T00:19:29.652Z,16.14
2022-07-29T00:20:30.244Z,16.15
2022-07-29T00:21:31.144Z,16.15
2022-07-29T00:22:32.023Z,16.20
2022-07-29T00:23:36.671Z,16.17
2022-07-29T00:24:33.767Z,16.20
2022-07-29T00:25:34.649Z,16.21
2022-07-29T00:26:35.546Z,16.21
2022-07-29T00:27:36.416Z,16.21
2022-07-29T00:28:37.301Z,16.21
2022-07-29T00:29:38.185Z,16.23
2022-07-29T00:30:39.056Z,16.23
2022-07-29T00:31:39.993Z,16.23
2022-07-29T00:32:40.846Z,16.21
2022-07-29T00:33:41.718Z,16.21
2022-07-29T00:34:42.595Z,16.20
2022-07-29T00:35:43.557Z,16.20
2022-07-29T00:36:44.441Z,16.20
2022-07-29T00:37:45.315Z,16.17
2022-07-29T00:38:46.196Z,16.17
2022-07-29T00:39:47.069Z,16.20
2022-07-29T00:40:47.957Z,16.20
2022-07-29T00:41:48.849Z,16.20
2022-07-29T00:42:49.722Z,16.20
2022-07-29T00:43:50.604Z,16.17
2022-07-29T00:44:51.487Z,16.21
2022-07-29T00:45:52.371Z,16.20
2022-07-29T00:46:53.340Z,16.21
2022-07-29T00:47:54.172Z,16.21
2022-07-29T00:48:55.088Z,16.21
2022-07-29T00:49:55.926Z,16.20
2022-07-29T00:50:56.815Z,16.20
2022-07-29T00:51:57.691Z,16.20
2022-07-29T00:52:58.573Z,16.15
2022-07-29T00:53:59.471Z,16.14
2022-07-29T00:55:03.675Z,16.15
2022-07-29T00:56:02.108Z,16.14
2022-07-29T00:57:02.013Z,16.12
2022-07-29T00:58:02.890Z,16.12
2022-07-29T00:59:03.766Z,16.11
2022-07-29T01:00:04.665Z,16.12
2022-07-29T01:01:05.602Z,16.12
2022-07-29T01:02:06.612Z,16.14
2022-07-29T01:03:06.989Z,16.12
2022-07-29T01:04:07.865Z,16.14
2022-07-29T01:05:08.753Z,16.14
2022-07-29T01:06:09.640Z,16.14
2022-07-29T01:07:10.525Z,16.15
2022-07-29T01:08:11.409Z,16.17
2022-07-29T01:09:12.291Z,16.17
2022-07-29T01:10:13.175Z,16.17
2022-07-29T01:11:14.056Z,16.20
2022-07-29T01:12:14.964Z,16.20
2022-07-29T01:13:15.836Z,16.20
2022-07-29T01:14:17.204Z,16.17
2022-07-29T01:15:17.643Z,16.17
2022-07-29T01:16:18.596Z,16.15
2022-07-29T01:17:19.439Z,16.17
2022-07-29T01:18:22.076Z,16.15
2022-07-29T01:19:21.136Z,16.17
2022-07-29T01:20:22.019Z,16.17
2022-07-29T01:21:22.902Z,16.20
2022-07-29T01:22:23.796Z,16.20
2022-07-29T01:23:24.679Z,16.17
2022-07-29T01:24:25.581Z,16.15
2022-07-29T01:25:26.455Z,16.14
2022-07-29T01:26:27.151Z,16.09
2022-07-29T01:27:28.042Z,16.09
2022-07-29T01:28:28.716Z,16.08
2022-07-29T01:29:36.255Z,16.05
2022-07-29T01:30:31.378Z,16.04
2022-07-29T01:31:31.328Z,16.01
2022-07-29T01:32:31.840Z,16.01
2022-07-29T01:33:32.688Z,15.96
2022-07-29T01:34:33.569Z,15.97
2022-07-29T01:35:34.452Z,15.97
2022-07-29T01:36:35.340Z,15.96
2022-07-29T01:37:36.227Z,15.97
2022-07-29T01:38:37.110Z,15.96
2022-07-29T01:39:37.993Z,15.97
2022-07-29T01:40:38.874Z,15.97
2022-07-29T01:41:39.758Z,15.97
2022-07-29T01:42:40.683Z,15.96
2022-07-29T01:43:41.539Z,15.97
2022-07-29T01:44:42.423Z,15.97
2022-07-29T01:45:43.308Z,15.97
2022-07-29T01:46:44.260Z,15.97
2022-07-29T01:47:45.113Z,15.96
2022-07-29T01:48:46.042Z,15.94
2022-07-29T01:49:46.522Z,15.93
2022-07-29T01:50:47.431Z,15.90
2022-07-29T01:51:48.289Z,15.92
2022-07-29T01:52:49.174Z,15.90
2022-07-29T01:53:50.072Z,15.89
2022-07-29T01:54:50.940Z,15.89
2022-07-29T01:55:51.822Z,15.89
2022-07-29T01:56:52.704Z,15.89
2022-07-29T01:57:53.589Z,15.86
2022-07-29T01:58:54.481Z,15.84
2022-07-29T01:59:55.014Z,15.84
2022-07-29T02:00:55.900Z,15.83
2022-07-29T02:01:56.790Z,15.82
2022-07-29T02:02:57.673Z,15.78
2022-07-29T02:03:58.555Z,15.78
2022-07-29T02:04:59.483Z,15.76
2022-07-29T02:06:00.324Z,15.78
2022-07-29T02:07:01.207Z,15.75
2022-07-29T02:08:02.100Z,15.74
2022-07-29T02:09:02.973Z,15.74
2022-07-29T02:10:03.855Z,15.74
2022-07-29T02:11:04.749Z,15.71
2022-07-29T02:12:05.623Z,15.72
2022-07-29T02:13:06.518Z,15.68
2022-07-29T02:14:07.402Z,15.71
2022-07-29T02:15:08.284Z,15.69
2022-07-29T02:16:09.301Z,15.69
2022-07-29T02:17:10.152Z,15.69
2022-07-29T02:18:11.035Z,15.71
2022-07-29T02:19:11.922Z,15.71
2022-07-29T02:20:12.792Z,15.72
2022-07-29T02:21:15.070Z,15.72
2022-07-29T02:22:14.189Z,15.72
2022-07-29T02:23:15.090Z,15.72
2022-07-29T02:24:16.479Z,15.74
2022-07-29T02:25:16.943Z,15.75
2022-07-29T02:26:17.815Z,15.75
2022-07-29T02:27:18.691Z,15.76
2022-07-29T02:28:19.581Z,15.78
2022-07-29T02:29:20.464Z,15.78
2022-07-29T02:30:21.372Z,15.78
2022-07-29T02:31:22.297Z,15.75
2022-07-29T02:32:23.163Z,15.76
2022-07-29T02:33:23.666Z,15.76
2022-07-29T02:34:24.549Z,15.75
2022-07-29T02:35:25.434Z,15.76
2022-07-29T02:36:26.326Z,15.75
2022-07-29T02:37:27.202Z,15.78
2022-07-29T02:38:28.096Z,15.76
2022-07-29T02:39:28.980Z,15.78
2022-07-29T02:40:29.863Z,15.76
2022-07-29T02:41:30.900Z,15.78
2022-07-29T02:42:31.248Z,15.76
2022-07-29T02:43:32.125Z,15.75
2022-07-29T02:44:34.776Z,15.75
2022-07-29T02:45:33.823Z,15.72
2022-07-29T02:46:34.763Z,15.72
2022-07-29T02:47:41.782Z,15.71
2022-07-29T02:48:37.433Z,15.69
2022-07-29T02:49:37.279Z,15.69
2022-07-29T02:50:38.160Z,15.65
2022-07-29T02:51:41.458Z,15.68
2022-07-29T02:52:40.837Z,15.65
2022-07-29T02:53:40.706Z,15.64
2022-07-29T02:54:41.600Z,15.64
2022-07-29T02:55:42.471Z,15.62
2022-07-29T02:56:43.350Z,15.62
2022-07-29T02:57:53.814Z,15.60
2022-07-29T02:58:46.015Z,15.57
2022-07-29T02:59:45.888Z,15.56
2022-07-29T03:00:46.788Z,15.57
2022-07-29T03:01:47.771Z,15.54
2022-07-29T03:02:48.641Z,15.50
2022-07-29T03:03:49.529Z,15.47
2022-07-29T03:04:50.498Z,15.44
2022-07-29T03:05:51.364Z,15.41
2022-07-29T03:06:52.258Z,15.38
2022-07-29T03:07:53.143Z,15.39
2022-07-29T03:08:54.025Z,15.35
2022-07-29T03:09:54.908Z,15.35
2022-07-29T03:10:55.791Z,15.32
2022-07-29T03:11:56.677Z,15.31
2022-07-29T03:12:57.555Z,15.32
2022-07-29T03:13:58.430Z,15.29
2022-07-29T03:14:59.310Z,15.29
2022-07-29T03:16:00.362Z,15.27
2022-07-29T03:17:00.764Z,15.23
2022-07-29T03:18:01.677Z,15.21
2022-07-29T03:19:02.541Z,15.21
2022-07-29T03:20:03.415Z,15.20
2022-07-29T03:21:04.296Z,15.19
2022-07-29T03:22:05.171Z,15.17
2022-07-29T03:23:06.062Z,15.14
2022-07-29T03:24:12.408Z,15.13
2022-07-29T03:25:08.713Z,15.14
2022-07-29T03:26:08.587Z,15.13
2022-07-29T03:27:09.469Z,15.13
2022-07-29T03:28:10.352Z,15.11
2022-07-29T03:29:11.254Z,15.11
2022-07-29T03:30:11.816Z,15.13
2022-07-29T03:31:12.758Z,15.13
2022-07-29T03:32:13.609Z,15.13
2022-07-29T03:33:14.349Z,15.14
2022-07-29T03:34:15.599Z,15.14
2022-07-29T03:35:16.151Z,15.16
2022-07-29T03:36:16.990Z,15.19
2022-07-29T03:37:17.800Z,15.19
2022-07-29T03:38:18.628Z,15.20
2022-07-29T03:39:19.511Z,15.21
2022-07-29T03:40:20.384Z,15.23
2022-07-29T03:41:22.638Z,15.23
2022-07-29T03:42:22.028Z,15.25
2022-07-29T03:43:22.851Z,15.25
2022-07-29T03:44:23.672Z,15.25
2022-07-29T03:45:24.498Z,15.25
2022-07-29T03:46:25.354Z,15.21
2022-07-29T03:47:35.503Z,15.23
2022-07-29T03:48:27.899Z,15.25
2022-07-29T03:49:27.826Z,15.25
2022-07-29T03:50:28.632Z,15.25
2022-07-29T03:51:33.248Z,15.28
2022-07-29T03:52:30.421Z,15.28
2022-07-29T03:53:31.258Z,15.28
2022-07-29T03:54:32.108Z,15.28
2022-07-29T03:55:32.918Z,15.31
2022-07-29T03:56:33.738Z,15.31
2022-07-29T03:57:34.568Z,15.32
2022-07-29T03:58:35.404Z,15.35
2022-07-29T03:59:36.232Z,15.34
2022-07-29T04:00:37.091Z,15.35
2022-07-29T04:01:37.912Z,15.35
2022-07-29T04:02:38.742Z,15.36
2022-07-29T04:03:39.637Z,15.36
2022-07-29T04:04:40.455Z,15.39
2022-07-29T04:05:41.284Z,15.39
2022-07-29T04:06:42.135Z,15.39
2022-07-29T04:07:42.942Z,15.43
2022-07-29T04:08:43.772Z,15.43
2022-07-29T04:09:44.598Z,15.41
2022-07-29T04:10:45.421Z,15.41
2022-07-29T04:12:02.306Z,15.41
2022-07-29T04:12:47.987Z,15.39
2022-07-29T04:13:47.804Z,15.38
2022-07-29T04:14:48.620Z,15.36
2022-07-29T04:15:49.493Z,15.34
2022-07-29T04:16:50.266Z,15.34
2022-07-29T04:17:51.137Z,15.32
2022-07-29T04:18:51.945Z,15.32
2022-07-29T04:19:52.775Z,15.29
2022-07-29T04:20:53.594Z,15.28
2022-07-29T04:21:54.424Z,15.27
2022-07-29T04:22:55.258Z,15.23
2022-07-29T04:23:56.094Z,15.20
2022-07-29T04:25:00.321Z,15.19
2022-07-29T04:25:58.624Z,15.16
2022-07-29T04:26:58.444Z,15.14
2022-07-29T04:27:59.285Z,15.14
2022-07-29T04:29:00.112Z,15.10
2022-07-29T04:30:00.965Z,15.10
2022-07-29T04:31:01.909Z,15.07
2022-07-29T04:32:02.704Z,15.07
2022-07-29T04:33:03.551Z,15.07
2022-07-29T04:34:04.362Z,15.06
2022-07-29T04:35:05.183Z,15.03
2022-07-29T04:36:06.025Z,15.06
2022-07-29T04:37:07.729Z,15.03
2022-07-29T04:38:07.569Z,15.01
2022-07-29T04:39:09.278Z,15.03
2022-07-29T04:40:09.109Z,15.03
2022-07-29T04:41:09.922Z,15.06
2022-07-29T04:42:10.898Z,15.06
2022-07-29T04:43:13.132Z,15.07
2022-07-29T04:44:12.758Z,15.07
2022-07-29T04:45:13.358Z,15.09
2022-07-29T04:46:13.978Z,15.07
2022-07-29T04:47:14.760Z,15.10
2022-07-29T04:48:15.595Z,15.11
2022-07-29T04:49:16.508Z,15.13
2022-07-29T04:50:17.313Z,15.13
2022-07-29T04:51:18.140Z,15.13
2022-07-29T04:52:18.961Z,15.17
2022-07-29T04:53:19.817Z,15.17
2022-07-29T04:54:20.643Z,15.19
2022-07-29T04:55:21.472Z,15.20
2022-07-29T04:56:22.294Z,15.21
2022-07-29T04:57:23.119Z,15.25
2022-07-29T04:58:23.969Z,15.25
2022-07-29T04:59:24.779Z,15.27
2022-07-29T05:00:33.116Z,15.28
2022-07-29T05:01:27.335Z,15.31
2022-07-29T05:02:27.240Z,15.32
2022-07-29T05:03:28.061Z,15.35
2022-07-29T05:04:28.907Z,15.36
2022-07-29T05:05:29.718Z,15.38
2022-07-29T05:06:30.545Z,15.39
2022-07-29T05:07:31.374Z,15.39
2022-07-29T05:08:32.203Z,15.43
2022-07-29T05:09:33.033Z,15.44
2022-07-29T05:10:33.864Z,15.46
2022-07-29T05:11:34.696Z,15.47
2022-07-29T05:12:35.512Z,15.49
2022-07-29T05:13:45.001Z,15.47
2022-07-29T05:14:38.092Z,15.49
2022-07-29T05:15:37.980Z,15.47
2022-07-29T05:16:38.770Z,15.46
2022-07-29T05:17:39.608Z,15.47
2022-07-29T05:18:40.440Z,15.44
2022-07-29T05:19:41.264Z,15.44
2022-07-29T05:20:42.090Z,15.44
2022-07-29T05:21:42.934Z,15.41
2022-07-29T05:22:43.794Z,15.39
2022-07-29T05:23:44.585Z,15.38
2022-07-29T05:24:45.405Z,15.35
2022-07-29T05:25:46.234Z,15.34
2022-07-29T05:26:47.054Z,15.32
2022-07-29T05:27:47.912Z,15.28
2022-07-29T05:28:48.803Z,15.29
2022-07-29T05:29:49.633Z,15.29
2022-07-29T05:30:50.532Z,15.28
2022-07-29T05:31:51.192Z,15.25
2022-07-29T05:32:52.015Z,15.21
2022-07-29T05:33:52.897Z,15.20
2022-07-29T05:34:53.689Z,15.20
2022-07-29T05:35:59.934Z,15.20
2022-07-29T05:36:56.234Z,15.23
2022-07-29T05:37:56.063Z,15.21
2022-07-29T05:38:56.893Z,15.23
2022-07-29T05:39:59.021Z,15.23
2022-07-29T05:40:58.459Z,15.23
2022-07-29T05:41:59.281Z,15.25
2022-07-29T05:43:00.101Z,15.29
2022-07-29T05:44:00.957Z,15.28
2022-07-29T05:45:01.770Z,15.28
2022-07-29T05:46:02.650Z,15.29
2022-07-29T05:47:03.499Z,15.31
2022-07-29T05:48:04.357Z,15.31
2022-07-29T05:49:05.240Z,15.32
2022-07-29T05:50:06.093Z,15.34
2022-07-29T05:51:06.881Z,15.36
2022-07-29T05:52:07.708Z,15.38
2022-07-29T05:53:18.789Z,15.43
2022-07-29T05:54:10.261Z,15.46
2022-07-29T05:55:10.080Z,15.51
2022-07-29T05:56:10.909Z,15.56
2022-07-29T05:57:11.728Z,15.59
2022-07-29T05:58:12.596Z,15.62
2022-07-29T05:59:18.334Z,15.68
2022-07-29T06:00:15.113Z,15.68
2022-07-29T06:01:14.989Z,15.74
2022-07-29T06:02:15.848Z,15.76
2022-07-29T06:03:16.661Z,15.80
2022-07-29T06:04:17.918Z,15.84
2022-07-29T06:05:18.426Z,15.89
2022-07-29T06:06:19.254Z,15.90
2022-07-29T06:07:20.081Z,15.97
2022-07-29T06:08:20.904Z,16.01
2022-07-29T06:09:21.735Z,16.04
2022-07-29T06:10:23.912Z,16.08
2022-07-29T06:11:23.072Z,16.15
2022-07-29T06:12:23.900Z,16.21
2022-07-29T06:13:24.722Z,16.25
2022-07-29T06:14:25.558Z,16.30
2022-07-29T06:15:26.386Z,16.34
2022-07-29T06:16:30.214Z,16.38
2022-07-29T06:17:27.768Z,16.41
2022-07-29T06:18:28.647Z,16.43
2022-07-29T06:19:29.484Z,16.48
2022-07-29T06:20:30.369Z,16.50
2022-07-29T06:21:31.193Z,16.53
2022-07-29T06:22:32.019Z,16.57
2022-07-29T06:23:32.844Z,16.58
2022-07-29T06:24:33.724Z,16.61
2022-07-29T06:25:34.524Z,16.64
2022-07-29T06:26:39.596Z,16.67
2022-07-29T06:27:36.292Z,16.68
2022-07-29T06:28:36.912Z,16.73
2022-07-29T06:29:37.752Z,16.73
2022-07-29T06:30:38.608Z,16.78
2022-07-29T06:31:39.419Z,16.82
2022-07-29T06:32:43.186Z,16.85
2022-07-29T06:33:40.763Z,16.89
2022-07-29T06:34:41.600Z,16.93
2022-07-29T06:35:46.548Z,16.96
2022-07-29T06:36:43.903Z,17.00
2022-07-29T06:37:43.731Z,17.04
2022-07-29T06:38:49.442Z,17.07
2022-07-29T06:39:46.390Z,17.11
2022-07-29T06:40:46.230Z,17.15
2022-07-29T06:41:47.037Z,17.16
2022-07-29T06:42:47.865Z,17.19
2022-07-29T06:43:51.890Z,17.19
2022-07-29T06:44:50.411Z,17.21
2022-07-29T06:45:50.290Z,17.23
2022-07-29T06:46:51.058Z,17.25
2022-07-29T06:47:51.881Z,17.26
2022-07-29T06:48:53.366Z,17.30
2022-07-29T06:49:53.349Z,17.31
2022-07-29T06:50:54.164Z,17.34
2022-07-29T06:51:54.955Z,17.37
2022-07-29T06:52:55.783Z,17.40
2022-07-29T06:53:58.397Z,17.43
2022-07-29T06:54:58.325Z,17.44
2022-07-29T06:55:58.156Z,17.49
2022-07-29T06:56:58.985Z,17.52
2022-07-29T06:57:59.806Z,17.56
2022-07-29T06:59:01.483Z,17.58
2022-07-29T07:00:01.412Z,17.62
2022-07-29T07:01:02.267Z,17.63
2022-07-29T07:02:03.115Z,17.68
2022-07-29T07:03:03.924Z,17.71
2022-07-29T07:04:04.757Z,17.75
2022-07-29T07:05:05.584Z,17.79
2022-07-29T07:06:06.404Z,17.84
2022-07-29T07:07:07.232Z,17.86
2022-07-29T07:08:08.052Z,17.92
2022-07-29T07:09:08.906Z,17.97
2022-07-29T07:10:09.723Z,17.99
2022-07-29T07:11:10.559Z,18.03
2022-07-29T07:12:11.374Z,18.08
2022-07-29T07:13:12.199Z,18.11
2022-07-29T07:14:13.028Z,18.11
2022-07-29T07:15:13.858Z,18.17
2022-07-29T07:16:14.772Z,18.25
2022-07-29T07:17:15.585Z,18.27
2022-07-29T07:18:16.408Z,18.29
2022-07-29T07:19:17.244Z,18.32
2022-07-29T07:20:18.063Z,18.35
2022-07-29T07:21:19.665Z,18.35
2022-07-29T07:22:19.493Z,18.36
2022-07-29T07:23:20.358Z,18.41
2022-07-29T07:24:21.162Z,18.47
2022-07-29T07:25:21.989Z,18.50
2022-07-29T07:26:22.845Z,18.54
2022-07-29T07:27:23.662Z,18.66
2022-07-29T07:28:25.257Z,18.75
2022-07-29T07:29:25.107Z,18.91
2022-07-29T07:30:25.939Z,18.88
2022-07-29T07:31:26.842Z,18.85
2022-07-29T07:32:27.723Z,18.95
2022-07-29T07:33:28.566Z,19.22
2022-07-29T07:34:29.722Z,19.44
2022-07-29T07:35:30.107Z,19.54
2022-07-29T07:36:30.941Z,19.56
2022-07-29T07:37:31.763Z,19.84
2022-07-29T07:38:32.595Z,20.18
2022-07-29T07:39:33.432Z,20.23
2022-07-29T07:40:34.287Z,20.39
2022-07-29T07:41:35.091Z,20.50
2022-07-29T07:42:35.911Z,20.50
2022-07-29T07:43:36.742Z,20.41
2022-07-29T07:44:57.197Z,20.35
2022-07-29T07:45:39.322Z,20.29
2022-07-29T07:46:39.129Z,20.23
2022-07-29T07:47:39.866Z,20.20
2022-07-29T07:48:40.747Z,20.14
2022-07-29T07:49:41.723Z,20.03
2022-07-29T07:50:42.164Z,19.96
2022-07-29T07:51:42.992Z,19.88
2022-07-29T07:52:44.708Z,19.83
2022-07-29T07:53:44.555Z,19.77
2022-07-29T07:54:45.378Z,19.76
2022-07-29T07:56:09.832Z,19.71
2022-07-29T07:56:47.922Z,19.66
2022-07-29T07:57:47.572Z,19.76
2022-07-29T07:58:48.411Z,19.73
2022-07-29T07:59:49.239Z,19.73
2022-07-29T08:00:50.092Z,19.69
2022-07-29T08:01:56.010Z,19.69
2022-07-29T08:02:52.650Z,19.66
2022-07-29T08:03:52.453Z,19.65
2022-07-29T08:04:53.283Z,19.61
2022-07-29T08:05:54.112Z,19.58
2022-07-29T08:06:54.932Z,19.59
2022-07-29T08:07:55.770Z,19.54
2022-07-29T08:09:19.570Z,19.50
2022-07-29T08:09:58.312Z,19.48
2022-07-29T08:10:58.143Z,19.48
2022-07-29T08:11:58.969Z,19.44
2022-07-29T08:12:59.799Z,19.41
2022-07-29T08:14:00.635Z,19.41
2022-07-29T08:15:01.442Z,19.37
2022-07-29T08:16:02.403Z,19.36
2022-07-29T08:17:03.215Z,19.33
2022-07-29T08:18:08.397Z,19.33
2022-07-29T08:19:04.705Z,19.32
2022-07-29T08:20:05.625Z,19.32
2022-07-29T08:21:06.392Z,19.33
2022-07-29T08:22:07.204Z,19.32
2022-07-29T08:23:08.024Z,19.32
2022-07-29T08:24:08.899Z,19.33
2022-07-29T08:25:09.705Z,19.40
2022-07-29T08:26:10.530Z,19.46
2022-07-29T08:27:33.506Z,19.58
2022-07-29T08:28:13.068Z,19.65
2022-07-29T08:29:15.932Z,19.78
2022-07-29T08:30:14.623Z,19.91
2022-07-29T08:31:14.617Z,19.96
2022-07-29T08:32:30.976Z,20.08
2022-07-29T08:33:17.158Z,20.17
2022-07-29T08:34:16.986Z,20.24
2022-07-29T08:35:17.815Z,20.32
2022-07-29T08:36:18.656Z,20.39
2022-07-29T08:37:19.474Z,20.43
2022-07-29T08:38:20.302Z,20.48
2022-07-29T08:39:21.146Z,20.52
2022-07-29T08:40:30.729Z,20.55
2022-07-29T08:41:23.696Z,20.57
2022-07-29T08:42:23.504Z,20.55
2022-07-29T08:43:24.325Z,20.57
2022-07-29T08:44:29.620Z,20.58
2022-07-29T08:45:26.961Z,20.62
2022-07-29T08:46:26.775Z,20.66
2022-07-29T08:47:27.623Z,20.67
2022-07-29T08:48:28.431Z,20.69
2022-07-29T08:49:29.277Z,20.70
2022-07-29T08:50:30.107Z,20.72
2022-07-29T08:51:30.927Z,20.74
2022-07-29T08:52:31.755Z,20.79
2022-07-29T08:53:32.586Z,20.84
2022-07-29T08:54:33.467Z,20.85
2022-07-29T08:55:34.287Z,20.89
2022-07-29T08:56:35.103Z,20.92
2022-07-29T08:57:37.196Z,20.95
2022-07-29T08:58:38.304Z,20.95
2022-07-29T08:59:37.346Z,20.99
2022-07-29T09:00:38.321Z,21.03
2022-07-29T09:01:42.306Z,21.04
2022-07-29T09:02:39.695Z,21.12
2022-07-29T09:03:40.565Z,21.13
2022-07-29T09:04:41.366Z,21.19
2022-07-29T09:05:47.507Z,21.21
2022-07-29T09:06:43.911Z,21.24
2022-07-29T09:07:43.739Z,21.28
2022-07-29T09:08:44.559Z,21.31
2022-07-29T09:09:45.237Z,21.34
2022-07-29T09:10:46.073Z,21.35
2022-07-29T09:11:46.894Z,21.38
2022-07-29T09:12:47.717Z,21.40
2022-07-29T09:13:48.544Z,21.40
2022-07-29T09:14:49.374Z,21.40
2022-07-29T09:15:50.202Z,21.42
2022-07-29T09:17:01.101Z,21.43
2022-07-29T09:17:52.747Z,21.43
2022-07-29T09:18:52.565Z,21.43
2022-07-29T09:19:53.404Z,21.43
2022-07-29T09:20:54.224Z,21.42
2022-07-29T09:21:55.053Z,21.44
2022-07-29T09:22:55.872Z,21.44
2022-07-29T09:23:56.705Z,21.44
2022-07-29T09:24:57.551Z,21.47
2022-07-29T09:25:58.370Z,21.47
2022-07-29T09:26:59.188Z,21.50
2022-07-29T09:28:00.021Z,21.53
2022-07-29T09:29:00.837Z,21.54
2022-07-29T09:30:01.681Z,21.56
2022-07-29T09:31:02.513Z,21.59
2022-07-29T09:32:03.452Z,21.65
2022-07-29T09:33:04.388Z,21.68
2022-07-29T09:34:05.169Z,21.72
2022-07-29T09:35:06.010Z,21.82
2022-07-29T09:36:06.839Z,21.86
2022-07-29T09:37:07.664Z,21.94
2022-07-29T09:38:08.491Z,22.00
2022-07-29T09:39:09.303Z,22.05
2022-07-29T09:40:11.831Z,22.07
2022-07-29T09:41:10.782Z,22.10
2022-07-29T09:42:11.609Z,22.14
2022-07-29T09:43:12.428Z,22.17
2022-07-29T09:44:13.274Z,22.18
2022-07-29T09:45:14.100Z,22.17
2022-07-29T09:46:14.926Z,22.17
2022-07-29T09:47:15.798Z,22.17
2022-07-29T09:48:16.585Z,22.15
2022-07-29T09:49:17.469Z,22.15
2022-07-29T09:50:18.254Z,22.15
2022-07-29T09:51:20.578Z,22.15
2022-07-29T09:52:19.750Z,22.15
2022-07-29T09:53:20.571Z,22.15
2022-07-29T09:54:21.397Z,22.12
2022-07-29T09:55:22.247Z,22.10
2022-07-29T09:56:23.056Z,22.10
2022-07-29T09:57:27.310Z,22.12
2022-07-29T09:58:25.586Z,22.15
2022-07-29T09:59:25.405Z,22.15
2022-07-29T10:00:26.271Z,22.14
2022-07-29T10:01:27.111Z,22.17
2022-07-29T10:02:27.891Z,22.18
2022-07-29T10:03:28.778Z,22.20
2022-07-29T10:04:29.637Z,22.20
2022-07-29T10:05:36.500Z,22.20
2022-07-29T10:06:32.178Z,22.21
2022-07-29T10:07:32.008Z,22.21
2022-07-29T10:08:32.827Z,22.22
2022-07-29T10:09:33.647Z,22.24
2022-07-29T10:10:34.484Z,22.25
2022-07-29T10:11:49.000Z,22.30
2022-07-29T10:12:37.016Z,22.35
2022-07-29T10:13:36.850Z,22.36
2022-07-29T10:14:37.662Z,22.39
2022-07-29T10:15:38.491Z,22.40
2022-07-29T10:16:39.392Z,22.42
2022-07-29T10:17:41.753Z,22.45
2022-07-29T10:18:41.136Z,22.45
2022-07-29T10:19:41.972Z,22.49
2022-07-29T10:20:42.820Z,22.54
2022-07-29T10:21:43.631Z,22.58
2022-07-29T10:22:52.965Z,22.60
2022-07-29T10:23:47.400Z,22.65
2022-07-29T10:24:45.700Z,22.65
2022-07-29T10:25:46.832Z,22.67
2022-07-29T10:26:47.116Z,22.68
2022-07-29T10:27:47.963Z,22.70
2022-07-29T10:28:48.766Z,22.70
2022-07-29T10:29:49.585Z,22.68
2022-07-29T10:30:50.423Z,22.68
2022-07-29T10:31:51.327Z,22.68
2022-07-29T10:32:54.220Z,22.72
2022-07-29T10:33:52.760Z,22.75
2022-07-29T10:34:53.570Z,22.79
2022-07-29T10:35:54.410Z,22.82
2022-07-29T10:36:55.256Z,22.82
2022-07-29T10:37:56.058Z,22.86
2022-07-29T10:38:56.685Z,22.86
2022-07-29T10:39:57.368Z,22.91
2022-07-29T10:40:58.193Z,22.94
2022-07-29T10:41:59.279Z,22.95
2022-07-29T10:42:59.681Z,22.97
2022-07-29T10:44:00.340Z,22.98
2022-07-29T10:45:01.169Z,23.04
2022-07-29T10:46:02.013Z,23.07
2022-07-29T10:47:02.919Z,23.05
2022-07-29T10:48:03.709Z,23.07
2022-07-29T10:49:04.659Z,23.12
2022-07-29T10:50:05.496Z,23.15
2022-07-29T10:51:06.855Z,23.16
2022-07-29T10:52:06.872Z,23.20
2022-07-29T10:53:08.841Z,23.22
2022-07-29T10:54:08.304Z,23.25
2022-07-29T10:55:09.232Z,23.28
2022-07-29T10:56:14.597Z,23.32
2022-07-29T10:57:11.775Z,23.33
2022-07-29T10:58:11.612Z,23.33
2022-07-29T10:59:12.431Z,23.35
2022-07-29T11:00:13.274Z,23.35
2022-07-29T11:01:13.855Z,23.38
2022-07-29T11:02:36.417Z,23.38
2022-07-29T11:03:16.298Z,23.38
2022-07-29T11:04:15.940Z,23.39
2022-07-29T11:05:16.755Z,23.40
2022-07-29T11:06:18.034Z,23.39
2022-07-29T11:07:19.296Z,23.42
2022-07-29T11:08:20.021Z,23.47
2022-07-29T11:09:34.764Z,23.51
2022-07-29T11:10:21.849Z,23.57
2022-07-29T11:11:22.563Z,23.60
2022-07-29T11:12:23.279Z,23.60
2022-07-29T11:13:23.188Z,23.61
2022-07-29T11:14:26.537Z,23.58
2022-07-29T11:15:25.256Z,23.57
2022-07-29T11:16:25.697Z,23.60
2022-07-29T11:17:26.449Z,23.58
2022-07-29T11:18:26.947Z,23.60
2022-07-29T11:19:30.438Z,23.61
2022-07-29T11:20:28.663Z,23.63
2022-07-29T11:21:48.836Z,23.63
2022-07-29T11:22:31.216Z,23.63
2022-07-29T11:23:33.852Z,23.65
2022-07-29T11:24:32.259Z,23.68
2022-07-29T11:25:42.977Z,23.68
2022-07-29T11:26:34.420Z,23.66
2022-07-29T11:27:33.987Z,23.69
2022-07-29T11:28:34.822Z,23.69
2022-07-29T11:29:40.029Z,23.65
2022-07-29T11:30:36.497Z,23.63
2022-07-29T11:31:37.195Z,23.65
2022-07-29T11:32:38.025Z,23.66
2022-07-29T11:33:56.158Z,23.66
2022-07-29T11:34:40.591Z,23.68
2022-07-29T11:35:40.471Z,23.72
2022-07-29T11:36:41.289Z,23.73
2022-07-29T11:37:45.745Z,23.73
2022-07-29T11:38:43.734Z,23.75
2022-07-29T11:39:43.561Z,23.76
2022-07-29T11:40:44.560Z,23.76
2022-07-29T11:41:45.361Z,23.76
2022-07-29T11:42:46.018Z,23.76
2022-07-29T11:43:46.948Z,23.75
2022-07-29T11:44:47.499Z,23.72
2022-07-29T11:45:48.259Z,23.68
2022-07-29T11:46:49.048Z,23.63
2022-07-29T11:47:49.922Z,23.57
2022-07-29T11:48:50.716Z,23.53
2022-07-29T11:49:51.425Z,23.46
2022-07-29T11:50:52.094Z,23.39
2022-07-29T11:51:52.922Z,23.36
2022-07-29T11:52:53.768Z,23.31
2022-07-29T11:53:54.583Z,23.27
2022-07-29T11:55:00.630Z,23.25
2022-07-29T11:55:56.188Z,23.23
2022-07-29T11:56:56.959Z,23.22
2022-07-29T11:58:03.825Z,23.22
2022-07-29T11:58:59.513Z,23.20
2022-07-29T12:00:04.759Z,23.20
2022-07-29T12:01:04.819Z,23.17
2022-07-29T12:02:33.110Z,23.17
2022-07-29T12:03:02.587Z,23.16
2022-07-29T12:04:02.397Z,23.15
2022-07-29T12:05:11.039Z,23.12
2022-07-29T12:06:07.597Z,23.12
2022-07-29T12:08:05.522Z,23.13
2022-07-29T12:09:06.502Z,23.12
2022-07-29T12:10:07.082Z,23.13
2022-07-29T12:11:07.960Z,23.15
2022-07-29T12:12:08.863Z,23.16
2022-07-29T12:13:09.642Z,23.17
2022-07-29T12:14:10.472Z,23.19
2022-07-29T12:15:11.531Z,23.19
2022-07-29T12:16:14.696Z,23.20
2022-07-29T12:17:12.645Z,23.22
2022-07-29T12:18:13.441Z,23.23
2022-07-29T12:19:14.261Z,23.23
2022-07-29T12:20:15.089Z,23.25
2022-07-29T12:21:16.815Z,23.27
2022-07-29T12:22:16.684Z,23.25
2022-07-29T12:23:17.535Z,23.28
2022-07-29T12:24:18.273Z,23.32
2022-07-29T12:25:34.666Z,23.38
2022-07-29T12:26:25.511Z,23.38
2022-07-29T12:27:28.609Z,23.43
2022-07-29T12:28:27.428Z,23.50
2022-07-29T12:29:34.668Z,23.53
2022-07-29T12:30:23.488Z,23.55
2022-07-29T12:31:43.278Z,23.60
2022-07-29T12:32:25.046Z,23.65
2022-07-29T12:33:24.852Z,23.68
2022-07-29T12:34:25.689Z,23.70
2022-07-29T12:35:26.521Z,23.73
2022-07-29T12:36:27.339Z,23.75
2022-07-29T12:37:40.854Z,23.78
2022-07-29T12:38:29.875Z,23.78
2022-07-29T12:39:29.693Z,23.80
2022-07-29T12:40:30.522Z,23.80
2022-07-29T12:41:31.378Z,23.84
2022-07-29T12:42:32.183Z,23.84
2022-07-29T12:43:33.000Z,23.87
2022-07-29T12:44:33.829Z,23.88
2022-07-29T12:45:34.651Z,23.85
2022-07-29T12:46:35.581Z,23.88
2022-07-29T12:47:36.388Z,23.90
2022-07-29T12:48:37.242Z,23.88
2022-07-29T12:49:38.373Z,23.88
2022-07-29T12:50:38.638Z,23.87
2022-07-29T12:51:39.466Z,23.87
2022-07-29T12:52:40.294Z,23.85
2022-07-29T12:53:41.141Z,23.85
2022-07-29T12:54:41.950Z,23.85
2022-07-29T12:55:42.769Z,23.87
2022-07-29T12:56:44.681Z,23.88
2022-07-29T12:57:44.340Z,23.88
2022-07-29T12:58:46.108Z,23.87
2022-07-29T12:59:46.127Z,23.90
2022-07-29T13:00:46.967Z,23.91
2022-07-29T13:01:47.923Z,23.91
2022-07-29T13:02:48.812Z,23.90
2022-07-29T13:03:56.886Z,23.91